»·PEaware :: SWA843 KBUR-KSJC

SWA843 :: KBUR-KSJC

FLIGHT INFORMATION

Flight Status: Arrived
Operator:
Southwest Airlines
More flights by this operator :: More flights under this callsign
Pilot: Paul A. (20189)
Aircraft: BOEING 737-700
(B737)
More flights by this aircraft type
Origin: KBUR Bob Hope-Burbank
United States
Destination: KSJC Mineta San Jose Intl
United States
More flights between these airports :: More routes between these airports
Route: OROSZ2 COREZ MAKRS TROXX SILCN4
File this flight plan on PilotEdge
Remarks:
Altitude:
(Current/Filed)
32,000ft
Speed:
(Current/Filed)
455kts
Departed: 27-Nov-18 08:40 AM
Arrived: 27-Nov-18 09:33 AM
Distance/Time
Traveled:
257nm/0:53
Distance/Time
To Go:
Arrived

Flight Plot

Page will automatically refresh every two minutes.

Flight plan parsing failed; only flown route is shown


Map Options




Map Legend


Flown Route
Filed Route
Departure Airport
Arrival Airport
Navaid (VOR, NDB)
Fix

Horizontal Profiles

Position Reports

Time Latitude Longitude Heading Altitude Ground
Speed
27-Nov-18 08:07 34.196820 -118.350606 180 728ft 0kts
27-Nov-18 08:08 34.196820 -118.350606 180 728ft 0kts
27-Nov-18 08:09 34.196820 -118.350606 180 728ft 0kts
27-Nov-18 08:10 34.196820 -118.350606 180 728ft 0kts
27-Nov-18 08:11 34.196820 -118.350606 180 728ft 0kts
27-Nov-18 08:12 34.196820 -118.350606 180 728ft 0kts
27-Nov-18 08:13 34.196820 -118.350606 180 729ft 0kts
27-Nov-18 08:14 34.196820 -118.350606 180 729ft 0kts
27-Nov-18 08:15 34.196820 -118.350606 180 729ft 0kts
27-Nov-18 08:16 34.196820 -118.350606 180 729ft 0kts
27-Nov-18 08:17 34.196820 -118.350606 180 729ft 0kts
27-Nov-18 08:18 34.196820 -118.350606 180 729ft 0kts
27-Nov-18 08:19 34.196820 -118.350606 180 729ft 0kts
27-Nov-18 08:20 34.196820 -118.350606 180 729ft 0kts
27-Nov-18 08:21 34.196820 -118.350606 180 729ft 0kts
27-Nov-18 08:22 34.196820 -118.350606 180 729ft 0kts
27-Nov-18 08:23 34.196820 -118.350606 180 729ft 0kts
27-Nov-18 08:24 34.196820 -118.350606 180 729ft 0kts
27-Nov-18 08:25 34.196820 -118.350606 180 729ft 0kts
27-Nov-18 08:26 34.196820 -118.350606 180 729ft 0kts
27-Nov-18 08:27 34.196820 -118.350606 180 729ft 0kts
27-Nov-18 08:28 34.196820 -118.350606 180 729ft 0kts
27-Nov-18 08:29 34.196820 -118.350606 180 729ft 0kts
27-Nov-18 08:30 34.197023 -118.350604 180 729ft 2kts
27-Nov-18 08:31 34.197318 -118.350543 206 729ft 0kts
27-Nov-18 08:32 34.197318 -118.350543 206 729ft 0kts
27-Nov-18 08:33 34.197318 -118.350543 206 729ft 0kts
27-Nov-18 08:34 34.197318 -118.350543 206 729ft 0kts
27-Nov-18 08:35 34.197318 -118.350543 206 729ft 0kts
27-Nov-18 08:36 34.197290 -118.353803 296 729ft 16kts
27-Nov-18 08:37 34.200795 -118.355947 347 729ft 24kts
27-Nov-18 08:38 34.205565 -118.357266 347 729ft 17kts
27-Nov-18 08:39 34.210588 -118.358662 346 729ft 15kts
27-Nov-18 08:40 34.211541 -118.359114 311 729ft 0kts
27-Nov-18 08:41 34.211542 -118.359116 311 729ft 0kts
27-Nov-18 08:42 34.211543 -118.359117 311 729ft 0kts
27-Nov-18 08:43 34.208672 -118.359531 167 729ft 80kts
27-Nov-18 08:44 34.170232 -118.365176 222 3020ft 182kts
27-Nov-18 08:45 34.125834 -118.414908 222 5649ft 261kts
27-Nov-18 08:46 34.068285 -118.476502 222 9969ft 288kts
27-Nov-18 08:47 34.026273 -118.561726 283 12688ft 344kts
27-Nov-18 08:48 34.094067 -118.642214 331 16475ft 358kts
27-Nov-18 08:49 34.195776 -118.645328 356 19979ft 378kts
27-Nov-18 08:50 34.300068 -118.646654 358 22879ft 395kts
27-Nov-18 08:51 34.409183 -118.664975 337 25533ft 401kts
27-Nov-18 08:52 34.507481 -118.730837 327 27952ft 407kts
27-Nov-18 08:53 34.606010 -118.800889 327 30005ft 414kts
27-Nov-18 08:54 34.687448 -118.858719 327 32134ft 403kts
27-Nov-18 08:55 34.799822 -118.938445 326 32264ft 399kts
27-Nov-18 08:56 34.879430 -118.995321 326 32255ft 398kts
27-Nov-18 08:57 34.975152 -119.063887 326 32241ft 399kts
27-Nov-18 08:58 35.070663 -119.132406 326 32224ft 398kts
27-Nov-18 08:59 35.162521 -119.198557 326 32212ft 398kts
27-Nov-18 09:00 35.258127 -119.267598 325 32206ft 397kts
27-Nov-18 09:01 35.353425 -119.336119 325 32206ft 397kts
27-Nov-18 09:02 35.464188 -119.416506 325 32202ft 397kts
27-Nov-18 09:03 35.538872 -119.480581 305 32193ft 389kts
27-Nov-18 09:04 35.573723 -119.605160 284 32201ft 389kts
27-Nov-18 09:05 35.593906 -119.735951 282 32198ft 388kts
27-Nov-18 09:06 35.613089 -119.866178 282 32198ft 387kts
27-Nov-18 09:07 35.632616 -119.996379 282 32200ft 387kts
27-Nov-18 09:08 35.651594 -120.125961 282 32202ft 385kts
27-Nov-18 09:09 35.669465 -120.250805 282 32204ft 385kts
27-Nov-18 09:10 35.701782 -120.375080 299 32209ft 383kts
27-Nov-18 09:11 35.756465 -120.482259 301 32209ft 383kts
27-Nov-18 09:12 35.814166 -120.592286 301 32209ft 383kts
27-Nov-18 09:13 35.872400 -120.702133 301 32209ft 382kts
27-Nov-18 09:14 35.930180 -120.812092 301 32208ft 381kts
27-Nov-18 09:15 35.987594 -120.921758 302 31884ft 376kts
27-Nov-18 09:16 36.058962 -121.007562 316 29600ft 378kts
27-Nov-18 09:17 36.141584 -121.087496 317 26797ft 373kts
27-Nov-18 09:18 36.222240 -121.164731 317 25276ft 366kts
27-Nov-18 09:19 36.303506 -121.242649 317 23734ft 368kts
27-Nov-18 09:20 36.382614 -121.318553 316 21593ft 350kts
27-Nov-18 09:21 36.457956 -121.391254 316 19422ft 339kts
27-Nov-18 09:22 36.539790 -121.448727 334 17066ft 345kts
27-Nov-18 09:23 36.630464 -121.486365 335 14766ft 338kts
27-Nov-18 09:24 36.718381 -121.523493 335 13399ft 317kts
27-Nov-18 09:25 36.798356 -121.557387 335 11888ft 300kts
27-Nov-18 09:26 36.876615 -121.590709 337 10058ft 295kts
27-Nov-18 09:27 36.953853 -121.623547 338 8240ft 289kts
27-Nov-18 09:28 37.027550 -121.654847 338 6855ft 272kts
27-Nov-18 09:29 37.098855 -121.685003 338 5204ft 263kts
27-Nov-18 09:30 37.164560 -121.714491 329 3935ft 228kts
27-Nov-18 09:31 37.205928 -121.756262 320 3280ft 177kts
27-Nov-18 09:32 37.241791 -121.794221 317 2689ft 163kts
27-Nov-18 09:33 37.276089 -121.831786 318 2089ft 162kts
27-Nov-18 09:34 37.310229 -121.869183 318 1365ft 167kts
27-Nov-18 09:35 37.343553 -121.905674 319 535ft 150kts
27-Nov-18 09:36 37.366133 -121.930047 25 70ft 13kts
27-Nov-18 09:37 37.366869 -121.929040 50 70ft 0kts
27-Nov-18 09:38 37.363452 -121.924933 136 70ft 18kts

Navigation Log

Ident Type
Flight plan parsing failed, navigation log unavailable